createdAt,value
2022-10-06T00:04:41.505Z,2.50
2022-10-06T00:09:44.815Z,2.90
2022-10-06T00:14:46.751Z,2.43
2022-10-06T00:19:48.712Z,2.40
2022-10-06T00:24:51.724Z,2.43
2022-10-06T00:29:53.656Z,2.30
2022-10-06T00:34:55.621Z,2.70
2022-10-06T00:39:59.124Z,2.33
2022-10-06T00:45:04.496Z,2.07
2022-10-06T00:50:07.616Z,3.27
2022-10-06T00:55:11.396Z,2.33
2022-10-06T01:00:14.102Z,2.50
2022-10-06T01:05:22.821Z,2.17
2022-10-06T01:10:26.059Z,2.07
2022-10-06T01:15:28.741Z,2.13
2022-10-06T01:20:31.278Z,2.20
2022-10-06T01:25:35.228Z,2.50
2022-10-06T01:30:42.221Z,2.20
2022-10-06T01:35:48.034Z,1.90
2022-10-06T01:40:52.737Z,2.50
2022-10-06T01:45:55.511Z,1.77
2022-10-06T01:50:57.465Z,2.27
2022-10-06T01:56:00.911Z,1.97
2022-10-06T02:01:05.344Z,2.20
2022-10-06T02:06:08.183Z,2.13
2022-10-06T02:11:12.057Z,2.40
2022-10-06T02:16:14.659Z,2.47
2022-10-06T02:21:18.903Z,2.20
2022-10-06T02:26:22.350Z,2.40
2022-10-06T02:31:24.625Z,2.53
2022-10-06T02:36:26.800Z,2.33
2022-10-06T02:41:30.203Z,1.90
2022-10-06T02:46:32.251Z,2.60
2022-10-06T02:51:34.533Z,2.20
2022-10-06T02:56:37.942Z,2.10
2022-10-06T03:01:40.208Z,2.30
2022-10-06T03:06:41.986Z,2.20
2022-10-06T03:11:46.060Z,2.60
2022-10-06T03:16:48.007Z,2.43
2022-10-06T03:21:50.010Z,2.13
2022-10-06T03:26:53.128Z,2.00
2022-10-06T03:31:58.620Z,1.90
2022-10-06T03:37:00.606Z,1.90
2022-10-06T03:42:04.439Z,2.17
2022-10-06T03:47:06.549Z,2.23
2022-10-06T03:52:08.819Z,1.83
2022-10-06T03:57:12.310Z,1.27
2022-10-06T04:02:14.430Z,1.20
2022-10-06T04:07:16.488Z,1.10
2022-10-06T04:12:19.842Z,1.30
2022-10-06T04:17:21.836Z,0.93
2022-10-06T04:22:23.848Z,1.00
2022-10-06T04:27:27.216Z,0.77
2022-10-06T04:32:28.867Z,0.53
2022-10-06T04:37:31.285Z,0.53
2022-10-06T04:42:35.384Z,0.80
2022-10-06T04:47:37.261Z,0.50
2022-10-06T04:52:39.490Z,0.30
2022-10-06T04:57:42.645Z,0.30
2022-10-06T05:02:44.678Z,0.67
2022-10-06T05:07:47.137Z,0.50
2022-10-06T05:12:50.344Z,0.33
2022-10-06T05:17:53.005Z,0.40
2022-10-06T05:22:54.700Z,0.30
2022-10-06T05:27:58.274Z,0.30
2022-10-06T05:33:00.238Z,0.20
2022-10-06T05:38:01.879Z,0.23
2022-10-06T05:43:04.826Z,0.30
2022-10-06T05:48:06.830Z,0.40
2022-10-06T05:53:08.651Z,0.30
2022-10-06T05:58:24.129Z,0.30
2022-10-06T06:03:33.103Z,0.70
2022-10-06T06:08:38.153Z,0.50
2022-10-06T06:13:45.563Z,0.30
2022-10-06T06:18:53.615Z,0.20
2022-10-06T06:24:03.520Z,0.30
2022-10-06T06:29:12.409Z,0.50
2022-10-06T06:34:21.648Z,0.60
2022-10-06T06:39:26.982Z,0.60
2022-10-06T06:44:37.585Z,0.40
2022-10-06T06:49:42.634Z,0.53
2022-10-06T06:54:54.584Z,0.60
2022-10-06T07:00:01.430Z,0.60
2022-10-06T07:05:06.925Z,0.60
2022-10-06T07:10:21.552Z,0.40
2022-10-06T07:15:27.961Z,0.50
2022-10-06T07:20:47.762Z,0.70
2022-10-06T07:25:57.219Z,0.50
2022-10-06T07:31:13.408Z,0.70
2022-10-06T07:36:17.317Z,0.50
2022-10-06T07:41:20.490Z,0.63
2022-10-06T07:46:24.809Z,1.00
2022-10-06T07:51:27.118Z,0.73
2022-10-06T07:56:29.289Z,0.83
2022-10-06T08:01:32.406Z,1.17
2022-10-06T08:06:34.989Z,1.90
2022-10-06T08:11:37.208Z,0.50
2022-10-06T08:16:41.050Z,0.70
2022-10-06T08:21:43.111Z,0.73
2022-10-06T08:26:45.204Z,0.60
2022-10-06T08:31:48.875Z,1.07
2022-10-06T08:37:08.751Z,0.80
2022-10-06T08:42:18.047Z,0.70
2022-10-06T08:47:23.233Z,0.70
2022-10-06T08:52:40.465Z,0.50
2022-10-06T08:58:02.269Z,0.67
2022-10-06T09:03:06.196Z,0.93
2022-10-06T09:08:22.154Z,0.80
2022-10-06T09:13:28.879Z,0.60
2022-10-06T09:18:56.524Z,1.00
2022-10-06T09:24:05.581Z,0.73
2022-10-06T09:29:07.209Z,0.70
2022-10-06T09:34:23.753Z,0.67
2022-10-06T09:39:28.856Z,0.80
2022-10-06T09:44:34.202Z,0.77
2022-10-06T09:49:37.671Z,0.70
2022-10-06T09:54:39.826Z,1.00
2022-10-06T09:59:44.264Z,0.90
2022-10-06T10:04:51.459Z,0.70
2022-10-06T10:09:55.131Z,0.70
2022-10-06T10:15:00.955Z,0.70
2022-10-06T10:20:19.810Z,0.80
2022-10-06T10:25:39.711Z,0.80
2022-10-06T10:30:51.124Z,0.93
2022-10-06T10:35:56.968Z,0.90
2022-10-06T10:41:02.601Z,0.65
2022-10-06T10:46:11.761Z,1.00
2022-10-06T10:51:20.289Z,0.88
2022-10-06T10:56:26.342Z,1.25
2022-10-06T11:01:37.446Z,0.85
2022-10-06T11:06:54.910Z,0.95
2022-10-06T11:12:17.960Z,1.07
2022-10-06T11:17:33.518Z,0.50
2022-10-06T11:22:43.888Z,0.80
2022-10-06T11:27:54.522Z,0.80
2022-10-06T11:33:09.113Z,0.80
2022-10-06T11:38:17.961Z,0.90
2022-10-06T11:43:30.704Z,1.00
2022-10-06T11:48:32.964Z,0.57
2022-10-06T11:53:41.169Z,0.87
2022-10-06T11:59:28.065Z,1.00
2022-10-06T12:04:30.186Z,0.73
2022-10-06T12:09:53.754Z,0.67
2022-10-06T12:20:32.858Z,0.70
2022-10-06T12:25:41.292Z,0.80
2022-10-06T12:30:56.530Z,0.40
2022-10-06T12:36:02.077Z,0.70
2022-10-06T12:41:10.374Z,0.63
2022-10-06T12:46:20.297Z,0.67
2022-10-06T12:51:30.227Z,0.80
2022-10-06T12:56:38.522Z,0.80
2022-10-06T13:01:41.002Z,1.00
2022-10-06T13:06:49.658Z,0.97
2022-10-06T13:11:53.306Z,0.70
2022-10-06T13:16:58.499Z,0.67
2022-10-06T13:22:02.922Z,0.80
2022-10-06T13:27:07.121Z,0.60
2022-10-06T13:32:17.867Z,0.50
2022-10-06T13:37:20.263Z,0.60
2022-10-06T13:42:30.916Z,0.70
2022-10-06T13:47:32.743Z,1.00
2022-10-06T13:52:39.874Z,0.70
2022-10-06T13:57:45.881Z,0.70
2022-10-06T14:02:49.861Z,0.50
2022-10-06T14:07:52.446Z,0.67
2022-10-06T14:12:56.161Z,0.50
2022-10-06T14:18:00.527Z,0.80
2022-10-06T14:23:02.725Z,0.70
2022-10-06T14:28:05.764Z,0.90
2022-10-06T14:33:08.356Z,0.80
2022-10-06T14:38:10.273Z,0.60
2022-10-06T14:43:13.732Z,0.70
2022-10-06T14:48:15.702Z,0.93
2022-10-06T14:53:17.672Z,0.70
2022-10-06T14:58:21.182Z,0.67
2022-10-06T15:03:23.439Z,0.80
2022-10-06T15:08:26.361Z,0.90
2022-10-06T15:13:29.416Z,0.87
2022-10-06T15:18:31.357Z,1.80
2022-10-06T15:23:33.477Z,0.90
2022-10-06T15:28:36.726Z,0.70
2022-10-06T15:33:38.431Z,0.60
2022-10-06T15:38:40.099Z,0.60
2022-10-06T15:43:43.426Z,0.90
2022-10-06T15:48:45.169Z,0.80
2022-10-06T15:53:47.029Z,0.63
2022-10-06T15:58:50.380Z,0.50
2022-10-06T16:03:52.054Z,0.63
2022-10-06T16:08:54.293Z,0.87
2022-10-06T16:14:00.330Z,0.80
2022-10-06T16:19:02.496Z,0.83
2022-10-06T16:24:04.911Z,1.27
2022-10-06T16:29:08.216Z,1.40
2022-10-06T16:34:10.155Z,0.97
2022-10-06T16:39:14.951Z,0.80
2022-10-06T16:44:19.548Z,1.00
2022-10-06T16:49:21.201Z,1.10
2022-10-06T16:54:23.267Z,1.10
2022-10-06T16:59:26.565Z,0.83
2022-10-06T17:04:28.280Z,0.70
2022-10-06T17:09:30.558Z,1.80
2022-10-06T17:14:33.911Z,1.83
2022-10-06T17:19:36.070Z,1.37
2022-10-06T17:24:37.711Z,2.40
2022-10-06T17:29:40.710Z,2.47
2022-10-06T17:34:42.407Z,1.90
2022-10-06T17:39:47.083Z,1.40
2022-10-06T17:44:50.330Z,1.90
2022-10-06T17:49:52.324Z,2.37
2022-10-06T17:54:54.407Z,1.53
2022-10-06T17:59:57.554Z,2.23
2022-10-06T18:04:59.201Z,1.43
2022-10-06T18:10:01.057Z,1.53
2022-10-06T18:15:04.615Z,1.30
2022-10-06T18:20:06.858Z,1.13
2022-10-06T18:25:08.836Z,1.03
2022-10-06T18:30:12.764Z,1.20
2022-10-06T18:40:36.736Z,1.63
2022-10-06T18:45:40.055Z,1.30
2022-10-06T18:50:41.745Z,1.50
2022-10-06T18:55:44.378Z,1.60
2022-10-06T19:00:47.598Z,1.67
2022-10-06T19:05:52.418Z,2.10
2022-10-06T19:10:54.503Z,1.70
2022-10-06T19:15:58.532Z,1.57
2022-10-06T19:21:00.183Z,2.13
2022-10-06T19:26:02.967Z,2.10
2022-10-06T19:31:13.066Z,1.90
2022-10-06T19:36:15.919Z,1.70
2022-10-06T19:41:17.899Z,1.77
2022-10-06T19:46:21.436Z,1.50
2022-10-06T19:51:24.241Z,1.77
2022-10-06T19:56:26.072Z,1.93
2022-10-06T20:01:29.448Z,1.80
2022-10-06T20:06:31.840Z,2.10
2022-10-06T20:11:34.328Z,2.10
2022-10-06T20:16:38.247Z,1.80
2022-10-06T20:21:42.366Z,1.50
2022-10-06T20:26:46.094Z,1.80
2022-10-06T20:31:51.148Z,1.27
2022-10-06T20:36:56.156Z,1.47
2022-10-06T20:41:58.333Z,1.20
2022-10-06T20:47:01.953Z,1.70
2022-10-06T20:52:04.824Z,1.60
2022-10-06T20:57:09.547Z,1.73
2022-10-06T21:02:13.013Z,1.73
2022-10-06T21:07:14.718Z,1.57
2022-10-06T21:12:16.713Z,1.40
2022-10-06T21:17:20.128Z,1.40
2022-10-06T21:22:22.284Z,1.47
2022-10-06T21:27:24.288Z,1.30
2022-10-06T21:32:27.908Z,1.80
2022-10-06T21:37:29.637Z,1.80
2022-10-06T21:42:31.382Z,1.70
2022-10-06T21:47:35.016Z,1.53
2022-10-06T21:52:37.321Z,1.70
2022-10-06T21:57:39.303Z,1.47
2022-10-06T22:02:42.474Z,1.50
2022-10-06T22:07:46.679Z,1.60
2022-10-06T22:12:49.241Z,1.83
2022-10-06T22:17:52.625Z,1.97
2022-10-06T22:22:54.307Z,1.80
2022-10-06T22:27:56.155Z,1.90
2022-10-06T22:32:59.641Z,2.03
2022-10-06T22:38:01.783Z,1.67
2022-10-06T22:43:03.934Z,1.70
2022-10-06T22:48:07.326Z,1.73
2022-10-06T22:53:10.400Z,1.60
2022-10-06T22:58:13.349Z,1.73
2022-10-06T23:03:17.327Z,1.87
2022-10-06T23:08:19.396Z,2.20
2022-10-06T23:13:21.989Z,2.10
2022-10-06T23:18:25.474Z,2.20
2022-10-06T23:23:27.163Z,1.80
2022-10-06T23:28:29.364Z,1.80
2022-10-06T23:33:32.864Z,1.80
2022-10-06T23:38:35.736Z,1.90
2022-10-06T23:43:37.781Z,1.80
2022-10-06T23:48:41.255Z,2.00
2022-10-06T23:53:44.325Z,1.80
2022-10-06T23:58:46.960Z,1.47
